sensor_id;sensor_type;location;lat;lon;timestamp;temperature;humidity
12761;DHT22;6444;49.742;6.114;2024-02-04T00:01:33;12.40;99.90
12761;DHT22;6444;49.742;6.114;2024-02-04T00:04:00;12.30;99.90
12761;DHT22;6444;49.742;6.114;2024-02-04T00:06:26;11.30;99.90
12761;DHT22;6444;49.742;6.114;2024-02-04T00:08:53;10.70;99.90
12761;DHT22;6444;49.742;6.114;2024-02-04T00:11:20;10.50;99.90
12761;DHT22;6444;49.742;6.114;2024-02-04T00:13:46;10.70;99.90
12761;DHT22;6444;49.742;6.114;2024-02-04T00:16:13;11.00;99.90
12761;DHT22;6444;49.742;6.114;2024-02-04T00:18:40;11.30;99.90
12761;DHT22;6444;49.742;6.114;2024-02-04T00:21:06;11.10;99.90
12761;DHT22;6444;49.742;6.114;2024-02-04T00:23:33;10.90;99.90
12761;DHT22;6444;49.742;6.114;2024-02-04T00:25:59;11.00;99.90
12761;DHT22;6444;49.742;6.114;2024-02-04T00:28:26;11.10;99.90
12761;DHT22;6444;49.742;6.114;2024-02-04T00:30:53;11.00;99.90
12761;DHT22;6444;49.742;6.114;2024-02-04T00:33:19;10.90;99.90
12761;DHT22;6444;49.742;6.114;2024-02-04T00:35:46;11.00;99.90
12761;DHT22;6444;49.742;6.114;2024-02-04T00:38:13;10.70;99.90
12761;DHT22;6444;49.742;6.114;2024-02-04T00:40:40;10.70;99.90
12761;DHT22;6444;49.742;6.114;2024-02-04T00:43:07;10.70;99.90
12761;DHT22;6444;49.742;6.114;2024-02-04T00:45:33;10.70;99.90
12761;DHT22;6444;49.742;6.114;2024-02-04T00:48:00;10.60;99.90
12761;DHT22;6444;49.742;6.114;2024-02-04T00:50:26;10.80;99.90
12761;DHT22;6444;49.742;6.114;2024-02-04T00:52:53;10.50;99.90
12761;DHT22;6444;49.742;6.114;2024-02-04T00:55:20;10.40;99.90
12761;DHT22;6444;49.742;6.114;2024-02-04T00:57:46;10.60;99.90
12761;DHT22;6444;49.742;6.114;2024-02-04T01:00:13;10.50;99.90
12761;DHT22;6444;49.742;6.114;2024-02-04T01:02:40;10.40;99.90
12761;DHT22;6444;49.742;6.114;2024-02-04T01:05:06;10.80;99.90
12761;DHT22;6444;49.742;6.114;2024-02-04T01:07:33;10.90;99.90
12761;DHT22;6444;49.742;6.114;2024-02-04T01:09:59;10.40;99.90
12761;DHT22;6444;49.742;6.114;2024-02-04T01:12:27;11.20;99.90
12761;DHT22;6444;49.742;6.114;2024-02-04T01:14:53;11.20;99.90
12761;DHT22;6444;49.742;6.114;2024-02-04T01:17:20;11.80;99.90
12761;DHT22;6444;49.742;6.114;2024-02-04T01:19:47;11.90;99.90
12761;DHT22;6444;49.742;6.114;2024-02-04T01:22:14;11.40;99.90
12761;DHT22;6444;49.742;6.114;2024-02-04T01:24:41;11.30;99.90
12761;DHT22;6444;49.742;6.114;2024-02-04T01:27:07;11.10;99.90
12761;DHT22;6444;49.742;6.114;2024-02-04T01:29:34;10.80;99.90
12761;DHT22;6444;49.742;6.114;2024-02-04T01:32:01;10.30;99.90
12761;DHT22;6444;49.742;6.114;2024-02-04T01:34:28;10.30;99.90
12761;DHT22;6444;49.742;6.114;2024-02-04T01:36:55;10.80;99.90
12761;DHT22;6444;49.742;6.114;2024-02-04T01:39:21;11.20;99.90
12761;DHT22;6444;49.742;6.114;2024-02-04T01:41:48;10.60;99.90
12761;DHT22;6444;49.742;6.114;2024-02-04T01:44:14;10.60;99.90
12761;DHT22;6444;49.742;6.114;2024-02-04T01:46:41;10.80;99.90
12761;DHT22;6444;49.742;6.114;2024-02-04T01:49:08;10.90;99.90
12761;DHT22;6444;49.742;6.114;2024-02-04T01:51:34;11.40;99.90
12761;DHT22;6444;49.742;6.114;2024-02-04T01:54:01;11.50;99.90
12761;DHT22;6444;49.742;6.114;2024-02-04T01:56:28;11.20;99.90
12761;DHT22;6444;49.742;6.114;2024-02-04T01:58:54;11.10;99.90
12761;DHT22;6444;49.742;6.114;2024-02-04T02:01:21;10.70;99.90
12761;DHT22;6444;49.742;6.114;2024-02-04T02:03:48;10.70;99.90
12761;DHT22;6444;49.742;6.114;2024-02-04T02:06:14;11.50;99.90
12761;DHT22;6444;49.742;6.114;2024-02-04T02:08:41;11.80;99.90
12761;DHT22;6444;49.742;6.114;2024-02-04T02:13:43;10.60;99.90
12761;DHT22;6444;49.742;6.114;2024-02-04T02:16:15;10.60;99.90
12761;DHT22;6444;49.742;6.114;2024-02-04T02:19:00;10.20;99.90
12761;DHT22;6444;49.742;6.114;2024-02-04T02:21:44;10.30;99.90
12761;DHT22;6444;49.742;6.114;2024-02-04T02:24:14;10.50;99.90
12761;DHT22;6444;49.742;6.114;2024-02-04T02:26:37;10.50;99.90
12761;DHT22;6444;49.742;6.114;2024-02-04T02:29:05;10.20;99.90
12761;DHT22;6444;49.742;6.114;2024-02-04T02:31:31;10.30;99.90
12761;DHT22;6444;49.742;6.114;2024-02-04T02:33:58;10.20;99.90
12761;DHT22;6444;49.742;6.114;2024-02-04T02:36:25;10.20;99.90
12761;DHT22;6444;49.742;6.114;2024-02-04T02:39:13;10.60;99.90
12761;DHT22;6444;49.742;6.114;2024-02-04T02:41:36;10.90;99.90
12761;DHT22;6444;49.742;6.114;2024-02-04T02:44:03;11.10;99.90
12761;DHT22;6444;49.742;6.114;2024-02-04T02:46:30;10.50;99.90
12761;DHT22;6444;49.742;6.114;2024-02-04T02:48:56;10.50;99.90
12761;DHT22;6444;49.742;6.114;2024-02-04T02:51:23;10.90;99.90
12761;DHT22;6444;49.742;6.114;2024-02-04T02:53:49;11.00;99.90
12761;DHT22;6444;49.742;6.114;2024-02-04T02:56:16;11.50;99.90
12761;DHT22;6444;49.742;6.114;2024-02-04T02:58:43;12.00;99.90
12761;DHT22;6444;49.742;6.114;2024-02-04T03:01:09;11.90;99.90
12761;DHT22;6444;49.742;6.114;2024-02-04T03:03:36;12.20;99.90
12761;DHT22;6444;49.742;6.114;2024-02-04T03:06:03;11.70;99.90
12761;DHT22;6444;49.742;6.114;2024-02-04T03:08:29;11.40;99.90
12761;DHT22;6444;49.742;6.114;2024-02-04T03:10:56;10.90;99.90
12761;DHT22;6444;49.742;6.114;2024-02-04T03:13:22;10.60;99.90
12761;DHT22;6444;49.742;6.114;2024-02-04T03:15:49;10.60;99.90
12761;DHT22;6444;49.742;6.114;2024-02-04T03:18:16;10.50;99.90
12761;DHT22;6444;49.742;6.114;2024-02-04T03:20:42;10.60;99.90
12761;DHT22;6444;49.742;6.114;2024-02-04T03:23:09;11.40;99.90
12761;DHT22;6444;49.742;6.114;2024-02-04T03:25:36;11.40;99.90
12761;DHT22;6444;49.742;6.114;2024-02-04T03:28:02;11.20;99.90
12761;DHT22;6444;49.742;6.114;2024-02-04T03:30:29;10.40;99.90
12761;DHT22;6444;49.742;6.114;2024-02-04T03:32:55;10.10;99.90
12761;DHT22;6444;49.742;6.114;2024-02-04T03:35:22;10.10;99.90
12761;DHT22;6444;49.742;6.114;2024-02-04T03:37:49;10.30;99.90
12761;DHT22;6444;49.742;6.114;2024-02-04T03:40:15;10.90;99.90
12761;DHT22;6444;49.742;6.114;2024-02-04T03:42:42;11.10;99.90
12761;DHT22;6444;49.742;6.114;2024-02-04T03:45:09;11.20;99.90
12761;DHT22;6444;49.742;6.114;2024-02-04T03:47:36;11.10;99.90
12761;DHT22;6444;49.742;6.114;2024-02-04T03:50:03;11.20;99.90
12761;DHT22;6444;49.742;6.114;2024-02-04T03:52:29;11.20;99.90
12761;DHT22;6444;49.742;6.114;2024-02-04T03:54:57;11.80;99.90
12761;DHT22;6444;49.742;6.114;2024-02-04T03:57:23;11.70;99.90
12761;DHT22;6444;49.742;6.114;2024-02-04T03:59:50;11.90;99.90
12761;DHT22;6444;49.742;6.114;2024-02-04T04:02:17;11.30;99.90
12761;DHT22;6444;49.742;6.114;2024-02-04T04:04:43;11.40;99.90
12761;DHT22;6444;49.742;6.114;2024-02-04T04:07:10;11.00;99.90
12761;DHT22;6444;49.742;6.114;2024-02-04T04:09:36;10.80;99.90
12761;DHT22;6444;49.742;6.114;2024-02-04T04:12:03;10.50;99.90
12761;DHT22;6444;49.742;6.114;2024-02-04T04:14:30;10.30;99.90
12761;DHT22;6444;49.742;6.114;2024-02-04T04:16:56;10.60;99.90
12761;DHT22;6444;49.742;6.114;2024-02-04T04:19:23;11.00;99.90
12761;DHT22;6444;49.742;6.114;2024-02-04T04:21:50;10.90;99.90
12761;DHT22;6444;49.742;6.114;2024-02-04T04:24:16;10.80;99.90
12761;DHT22;6444;49.742;6.114;2024-02-04T04:26:44;10.70;99.90
12761;DHT22;6444;49.742;6.114;2024-02-04T04:29:10;10.70;99.90
12761;DHT22;6444;49.742;6.114;2024-02-04T04:31:37;10.90;99.90
12761;DHT22;6444;49.742;6.114;2024-02-04T04:34:03;11.00;99.90
12761;DHT22;6444;49.742;6.114;2024-02-04T04:36:30;11.00;99.90
12761;DHT22;6444;49.742;6.114;2024-02-04T04:38:57;10.90;99.90
12761;DHT22;6444;49.742;6.114;2024-02-04T04:41:23;10.60;99.90
12761;DHT22;6444;49.742;6.114;2024-02-04T04:43:50;10.80;99.90
12761;DHT22;6444;49.742;6.114;2024-02-04T04:46:17;10.80;99.90
12761;DHT22;6444;49.742;6.114;2024-02-04T04:48:43;11.00;99.90
12761;DHT22;6444;49.742;6.114;2024-02-04T04:51:10;10.40;99.90
12761;DHT22;6444;49.742;6.114;2024-02-04T04:53:36;10.30;99.90
12761;DHT22;6444;49.742;6.114;2024-02-04T04:56:03;10.40;99.90
12761;DHT22;6444;49.742;6.114;2024-02-04T04:58:30;9.80;99.90
12761;DHT22;6444;49.742;6.114;2024-02-04T05:00:57;9.80;99.90
12761;DHT22;6444;49.742;6.114;2024-02-04T05:03:24;9.70;99.90
12761;DHT22;6444;49.742;6.114;2024-02-04T05:05:51;10.30;99.90
12761;DHT22;6444;49.742;6.114;2024-02-04T05:08:18;10.30;99.90
12761;DHT22;6444;49.742;6.114;2024-02-04T05:10:44;10.50;99.90
12761;DHT22;6444;49.742;6.114;2024-02-04T05:13:11;10.20;99.90
12761;DHT22;6444;49.742;6.114;2024-02-04T05:15:38;9.80;99.90
12761;DHT22;6444;49.742;6.114;2024-02-04T05:18:04;10.00;99.90
12761;DHT22;6444;49.742;6.114;2024-02-04T05:20:31;10.00;99.90
12761;DHT22;6444;49.742;6.114;2024-02-04T05:22:57;10.10;99.90
12761;DHT22;6444;49.742;6.114;2024-02-04T05:25:24;9.90;99.90
12761;DHT22;6444;49.742;6.114;2024-02-04T05:27:51;9.90;99.90
12761;DHT22;6444;49.742;6.114;2024-02-04T05:30:17;9.70;99.90
12761;DHT22;6444;49.742;6.114;2024-02-04T05:32:45;9.80;99.90
12761;DHT22;6444;49.742;6.114;2024-02-04T05:35:11;9.70;99.90
12761;DHT22;6444;49.742;6.114;2024-02-04T05:37:38;9.50;99.90
12761;DHT22;6444;49.742;6.114;2024-02-04T05:40:05;9.80;99.90
12761;DHT22;6444;49.742;6.114;2024-02-04T05:42:32;10.60;99.90
12761;DHT22;6444;49.742;6.114;2024-02-04T05:44:59;10.50;99.90
12761;DHT22;6444;49.742;6.114;2024-02-04T05:47:25;10.50;99.90
12761;DHT22;6444;49.742;6.114;2024-02-04T05:49:52;10.20;99.90
12761;DHT22;6444;49.742;6.114;2024-02-04T05:52:19;10.10;99.90
12761;DHT22;6444;49.742;6.114;2024-02-04T05:54:46;10.10;99.90
12761;DHT22;6444;49.742;6.114;2024-02-04T05:57:13;9.80;99.90
12761;DHT22;6444;49.742;6.114;2024-02-04T05:59:39;10.00;99.90
12761;DHT22;6444;49.742;6.114;2024-02-04T06:02:06;10.30;99.90
12761;DHT22;6444;49.742;6.114;2024-02-04T06:04:32;10.50;99.90
12761;DHT22;6444;49.742;6.114;2024-02-04T06:06:59;10.30;99.90
12761;DHT22;6444;49.742;6.114;2024-02-04T06:09:26;9.80;99.90
12761;DHT22;6444;49.742;6.114;2024-02-04T06:11:52;9.90;99.90
12761;DHT22;6444;49.742;6.114;2024-02-04T06:14:19;9.90;99.90
12761;DHT22;6444;49.742;6.114;2024-02-04T06:16:46;10.10;99.90
12761;DHT22;6444;49.742;6.114;2024-02-04T06:19:12;10.00;99.90
12761;DHT22;6444;49.742;6.114;2024-02-04T06:21:40;9.80;99.90
12761;DHT22;6444;49.742;6.114;2024-02-04T06:24:06;9.80;99.90
12761;DHT22;6444;49.742;6.114;2024-02-04T06:26:37;9.70;99.90
12761;DHT22;6444;49.742;6.114;2024-02-04T06:29:01;9.70;99.90
12761;DHT22;6444;49.742;6.114;2024-02-04T06:31:28;9.70;99.90
12761;DHT22;6444;49.742;6.114;2024-02-04T06:33:55;9.30;99.90
12761;DHT22;6444;49.742;6.114;2024-02-04T06:36:22;9.20;99.90
12761;DHT22;6444;49.742;6.114;2024-02-04T06:38:48;9.30;99.90
12761;DHT22;6444;49.742;6.114;2024-02-04T06:41:15;9.40;99.90
12761;DHT22;6444;49.742;6.114;2024-02-04T06:43:42;9.70;99.90
12761;DHT22;6444;49.742;6.114;2024-02-04T06:46:09;9.70;99.90
12761;DHT22;6444;49.742;6.114;2024-02-04T06:48:36;10.30;99.90
12761;DHT22;6444;49.742;6.114;2024-02-04T06:51:03;10.30;99.90
12761;DHT22;6444;49.742;6.114;2024-02-04T06:53:30;10.30;99.90
12761;DHT22;6444;49.742;6.114;2024-02-04T06:55:56;10.40;99.90
12761;DHT22;6444;49.742;6.114;2024-02-04T06:58:23;10.30;99.90
12761;DHT22;6444;49.742;6.114;2024-02-04T07:00:50;10.10;99.90
12761;DHT22;6444;49.742;6.114;2024-02-04T07:03:17;10.10;99.90
12761;DHT22;6444;49.742;6.114;2024-02-04T07:05:44;10.20;99.90
12761;DHT22;6444;49.742;6.114;2024-02-04T07:08:10;10.40;99.90
12761;DHT22;6444;49.742;6.114;2024-02-04T07:10:38;10.00;99.90
12761;DHT22;6444;49.742;6.114;2024-02-04T07:13:04;10.00;99.90
12761;DHT22;6444;49.742;6.114;2024-02-04T07:15:31;10.00;99.90
12761;DHT22;6444;49.742;6.114;2024-02-04T07:17:57;9.80;99.90
12761;DHT22;6444;49.742;6.114;2024-02-04T07:20:25;9.70;99.90
12761;DHT22;6444;49.742;6.114;2024-02-04T07:22:51;9.70;99.90
12761;DHT22;6444;49.742;6.114;2024-02-04T07:25:18;9.90;99.90
12761;DHT22;6444;49.742;6.114;2024-02-04T07:27:45;9.90;99.90
12761;DHT22;6444;49.742;6.114;2024-02-04T07:30:12;9.90;99.90
12761;DHT22;6444;49.742;6.114;2024-02-04T07:32:39;9.90;99.90
12761;DHT22;6444;49.742;6.114;2024-02-04T07:35:06;9.90;99.90
12761;DHT22;6444;49.742;6.114;2024-02-04T07:37:33;9.80;99.90
12761;DHT22;6444;49.742;6.114;2024-02-04T07:39:59;10.00;99.90
12761;DHT22;6444;49.742;6.114;2024-02-04T07:42:26;10.10;99.90
12761;DHT22;6444;49.742;6.114;2024-02-04T07:44:53;9.80;99.90
12761;DHT22;6444;49.742;6.114;2024-02-04T07:47:20;9.80;99.90
12761;DHT22;6444;49.742;6.114;2024-02-04T07:49:47;10.00;99.90
12761;DHT22;6444;49.742;6.114;2024-02-04T07:52:14;9.90;99.90
12761;DHT22;6444;49.742;6.114;2024-02-04T07:54:41;9.90;99.90
12761;DHT22;6444;49.742;6.114;2024-02-04T07:57:07;9.70;99.90
12761;DHT22;6444;49.742;6.114;2024-02-04T07:59:34;9.80;99.90
12761;DHT22;6444;49.742;6.114;2024-02-04T08:02:01;10.10;99.90
12761;DHT22;6444;49.742;6.114;2024-02-04T08:04:28;10.10;99.90
12761;DHT22;6444;49.742;6.114;2024-02-04T08:06:54;10.10;99.90
12761;DHT22;6444;49.742;6.114;2024-02-04T08:09:22;9.80;99.90
12761;DHT22;6444;49.742;6.114;2024-02-04T08:11:48;9.70;99.90
12761;DHT22;6444;49.742;6.114;2024-02-04T08:14:15;9.70;99.90
12761;DHT22;6444;49.742;6.114;2024-02-04T08:16:42;10.00;99.90
12761;DHT22;6444;49.742;6.114;2024-02-04T08:19:09;9.90;99.90
12761;DHT22;6444;49.742;6.114;2024-02-04T08:21:36;9.90;99.90
12761;DHT22;6444;49.742;6.114;2024-02-04T08:24:02;10.00;99.90
12761;DHT22;6444;49.742;6.114;2024-02-04T08:26:30;10.10;99.90
12761;DHT22;6444;49.742;6.114;2024-02-04T08:28:56;10.00;99.90
12761;DHT22;6444;49.742;6.114;2024-02-04T08:31:23;9.90;99.90
12761;DHT22;6444;49.742;6.114;2024-02-04T08:33:50;10.00;99.90
12761;DHT22;6444;49.742;6.114;2024-02-04T08:36:17;10.40;99.90
12761;DHT22;6444;49.742;6.114;2024-02-04T08:38:44;10.40;99.90
12761;DHT22;6444;49.742;6.114;2024-02-04T08:41:10;10.20;99.90
12761;DHT22;6444;49.742;6.114;2024-02-04T08:43:37;10.20;99.90
12761;DHT22;6444;49.742;6.114;2024-02-04T08:46:05;9.90;99.90
12761;DHT22;6444;49.742;6.114;2024-02-04T08:48:31;9.90;99.90
12761;DHT22;6444;49.742;6.114;2024-02-04T08:50:58;10.00;99.90
12761;DHT22;6444;49.742;6.114;2024-02-04T08:53:25;9.80;99.90
12761;DHT22;6444;49.742;6.114;2024-02-04T08:55:52;9.80;99.90
12761;DHT22;6444;49.742;6.114;2024-02-04T08:58:18;9.90;99.90
12761;DHT22;6444;49.742;6.114;2024-02-04T09:00:45;9.90;99.90
12761;DHT22;6444;49.742;6.114;2024-02-04T09:03:11;9.80;99.90
12761;DHT22;6444;49.742;6.114;2024-02-04T09:05:38;9.90;99.90
12761;DHT22;6444;49.742;6.114;2024-02-04T09:08:05;9.80;99.90
12761;DHT22;6444;49.742;6.114;2024-02-04T09:10:31;10.00;99.90
12761;DHT22;6444;49.742;6.114;2024-02-04T09:12:58;9.90;99.90
12761;DHT22;6444;49.742;6.114;2024-02-04T09:15:25;9.70;99.90
12761;DHT22;6444;49.742;6.114;2024-02-04T09:17:51;9.80;99.90
12761;DHT22;6444;49.742;6.114;2024-02-04T09:20:19;10.10;99.90
12761;DHT22;6444;49.742;6.114;2024-02-04T09:22:45;10.10;99.90
12761;DHT22;6444;49.742;6.114;2024-02-04T09:25:12;10.10;99.90
12761;DHT22;6444;49.742;6.114;2024-02-04T09:27:42;10.30;99.90
12761;DHT22;6444;49.742;6.114;2024-02-04T09:30:08;10.50;99.90
12761;DHT22;6444;49.742;6.114;2024-02-04T09:32:35;10.30;99.90
12761;DHT22;6444;49.742;6.114;2024-02-04T09:35:02;10.40;99.90
12761;DHT22;6444;49.742;6.114;2024-02-04T09:37:28;10.20;99.90
12761;DHT22;6444;49.742;6.114;2024-02-04T09:39:55;10.20;99.90
12761;DHT22;6444;49.742;6.114;2024-02-04T09:42:22;10.40;99.90
12761;DHT22;6444;49.742;6.114;2024-02-04T09:44:51;10.30;99.90
12761;DHT22;6444;49.742;6.114;2024-02-04T09:47:18;10.50;99.90
12761;DHT22;6444;49.742;6.114;2024-02-04T09:49:45;10.40;99.90
12761;DHT22;6444;49.742;6.114;2024-02-04T09:52:12;10.70;99.90
12761;DHT22;6444;49.742;6.114;2024-02-04T09:54:44;10.90;99.90
12761;DHT22;6444;49.742;6.114;2024-02-04T09:57:08;10.70;99.90
12761;DHT22;6444;49.742;6.114;2024-02-04T09:59:35;10.50;99.90
12761;DHT22;6444;49.742;6.114;2024-02-04T10:02:03;10.80;99.90
12761;DHT22;6444;49.742;6.114;2024-02-04T10:04:37;10.60;99.90
12761;DHT22;6444;49.742;6.114;2024-02-04T10:07:03;10.80;99.90
12761;DHT22;6444;49.742;6.114;2024-02-04T10:09:30;10.40;99.90
12761;DHT22;6444;49.742;6.114;2024-02-04T10:11:56;10.40;99.90
12761;DHT22;6444;49.742;6.114;2024-02-04T10:14:23;10.50;99.90
12761;DHT22;6444;49.742;6.114;2024-02-04T10:16:50;11.00;99.90
12761;DHT22;6444;49.742;6.114;2024-02-04T10:19:16;11.00;99.90
12761;DHT22;6444;49.742;6.114;2024-02-04T10:21:43;10.70;99.90
12761;DHT22;6444;49.742;6.114;2024-02-04T10:24:09;10.70;99.90
12761;DHT22;6444;49.742;6.114;2024-02-04T10:26:36;11.00;99.90
12761;DHT22;6444;49.742;6.114;2024-02-04T10:29:03;11.20;99.90
12761;DHT22;6444;49.742;6.114;2024-02-04T10:31:29;11.20;99.90
12761;DHT22;6444;49.742;6.114;2024-02-04T10:33:56;10.90;99.90
12761;DHT22;6444;49.742;6.114;2024-02-04T10:36:23;10.70;99.90
12761;DHT22;6444;49.742;6.114;2024-02-04T10:38:49;10.70;99.90
12761;DHT22;6444;49.742;6.114;2024-02-04T10:41:16;10.70;99.90
12761;DHT22;6444;49.742;6.114;2024-02-04T10:43:44;10.80;99.90
12761;DHT22;6444;49.742;6.114;2024-02-04T10:46:16;10.80;99.90
12761;DHT22;6444;49.742;6.114;2024-02-04T10:48:41;11.60;99.90
12761;DHT22;6444;49.742;6.114;2024-02-04T10:51:13;11.60;99.90
12761;DHT22;6444;49.742;6.114;2024-02-04T10:53:43;11.50;99.90
12761;DHT22;6444;49.742;6.114;2024-02-04T10:56:46;11.10;99.90
12761;DHT22;6444;49.742;6.114;2024-02-04T10:58:52;11.10;99.90
12761;DHT22;6444;49.742;6.114;2024-02-04T11:01:19;11.30;99.90
12761;DHT22;6444;49.742;6.114;2024-02-04T11:03:49;10.90;99.90
12761;DHT22;6444;49.742;6.114;2024-02-04T11:06:20;10.90;99.90
12761;DHT22;6444;49.742;6.114;2024-02-04T11:08:49;10.60;99.90
12761;DHT22;6444;49.742;6.114;2024-02-04T11:11:43;10.80;99.90
12761;DHT22;6444;49.742;6.114;2024-02-04T11:14:16;10.70;99.90
12761;DHT22;6444;49.742;6.114;2024-02-04T11:22:05;11.40;99.90
12761;DHT22;6444;49.742;6.114;2024-02-04T11:26:58;11.50;99.90
12761;DHT22;6444;49.742;6.114;2024-02-04T11:29:26;11.70;99.90
12761;DHT22;6444;49.742;6.114;2024-02-04T11:31:57;11.50;99.90
12761;DHT22;6444;49.742;6.114;2024-02-04T11:34:26;11.40;99.90
12761;DHT22;6444;49.742;6.114;2024-02-04T11:36:52;11.20;99.90
12761;DHT22;6444;49.742;6.114;2024-02-04T11:39:19;11.30;99.90
12761;DHT22;6444;49.742;6.114;2024-02-04T11:41:49;11.40;99.90
12761;DHT22;6444;49.742;6.114;2024-02-04T11:44:25;11.30;99.90
12761;DHT22;6444;49.742;6.114;2024-02-04T11:46:54;11.70;99.90
12761;DHT22;6444;49.742;6.114;2024-02-04T11:49:24;11.70;99.90
12761;DHT22;6444;49.742;6.114;2024-02-04T11:51:47;11.80;99.90
12761;DHT22;6444;49.742;6.114;2024-02-04T11:54:20;11.60;99.90
12761;DHT22;6444;49.742;6.114;2024-02-04T11:56:55;11.60;99.90
12761;DHT22;6444;49.742;6.114;2024-02-04T11:59:23;11.50;99.90
12761;DHT22;6444;49.742;6.114;2024-02-04T12:01:56;11.90;99.90
12761;DHT22;6444;49.742;6.114;2024-02-04T12:04:22;11.70;99.90
12761;DHT22;6444;49.742;6.114;2024-02-04T12:06:50;11.60;99.90
12761;DHT22;6444;49.742;6.114;2024-02-04T12:09:19;11.60;99.90
12761;DHT22;6444;49.742;6.114;2024-02-04T12:11:46;11.50;99.90
12761;DHT22;6444;49.742;6.114;2024-02-04T12:14:12;11.70;99.90
12761;DHT22;6444;49.742;6.114;2024-02-04T12:16:39;11.70;99.90
12761;DHT22;6444;49.742;6.114;2024-02-04T12:19:07;12.10;99.90
12761;DHT22;6444;49.742;6.114;2024-02-04T12:21:33;12.70;99.90
12761;DHT22;6444;49.742;6.114;2024-02-04T12:24:01;13.00;99.90
12761;DHT22;6444;49.742;6.114;2024-02-04T12:29:07;11.90;99.90
12761;DHT22;6444;49.742;6.114;2024-02-04T12:31:34;11.70;99.90
12761;DHT22;6444;49.742;6.114;2024-02-04T12:34:01;11.50;99.90
12761;DHT22;6444;49.742;6.114;2024-02-04T12:36:34;11.90;99.90
12761;DHT22;6444;49.742;6.114;2024-02-04T12:39:09;12.10;99.90
12761;DHT22;6444;49.742;6.114;2024-02-04T12:44:35;12.20;99.90
12761;DHT22;6444;49.742;6.114;2024-02-04T12:47:01;11.90;99.90
12761;DHT22;6444;49.742;6.114;2024-02-04T12:49:28;12.30;99.90
12761;DHT22;6444;49.742;6.114;2024-02-04T12:52:03;12.60;99.90
12761;DHT22;6444;49.742;6.114;2024-02-04T12:54:21;12.70;99.90
12761;DHT22;6444;49.742;6.114;2024-02-04T12:56:51;11.80;99.90
12761;DHT22;6444;49.742;6.114;2024-02-04T12:59:26;11.90;99.90
12761;DHT22;6444;49.742;6.114;2024-02-04T13:01:53;11.80;99.90
12761;DHT22;6444;49.742;6.114;2024-02-04T13:04:19;11.90;99.90
12761;DHT22;6444;49.742;6.114;2024-02-04T13:06:45;11.90;99.90
12761;DHT22;6444;49.742;6.114;2024-02-04T13:09:15;11.90;99.90
12761;DHT22;6444;49.742;6.114;2024-02-04T13:11:39;11.90;99.90
12761;DHT22;6444;49.742;6.114;2024-02-04T13:14:06;12.40;99.90
12761;DHT22;6444;49.742;6.114;2024-02-04T13:16:32;12.20;99.90
12761;DHT22;6444;49.742;6.114;2024-02-04T13:18:59;12.40;99.90
12761;DHT22;6444;49.742;6.114;2024-02-04T13:21:27;12.10;99.90
12761;DHT22;6444;49.742;6.114;2024-02-04T13:23:53;12.00;99.90
12761;DHT22;6444;49.742;6.114;2024-02-04T13:26:20;11.80;99.90
12761;DHT22;6444;49.742;6.114;2024-02-04T13:28:46;11.90;99.90
12761;DHT22;6444;49.742;6.114;2024-02-04T13:31:13;11.80;99.90
12761;DHT22;6444;49.742;6.114;2024-02-04T13:33:40;12.00;99.90
12761;DHT22;6444;49.742;6.114;2024-02-04T13:36:07;12.00;99.90
12761;DHT22;6444;49.742;6.114;2024-02-04T13:38:34;11.90;99.90
12761;DHT22;6444;49.742;6.114;2024-02-04T13:41:01;11.90;99.90
12761;DHT22;6444;49.742;6.114;2024-02-04T13:43:27;12.50;99.90
12761;DHT22;6444;49.742;6.114;2024-02-04T13:45:54;12.40;99.90
12761;DHT22;6444;49.742;6.114;2024-02-04T13:48:21;12.40;99.90
12761;DHT22;6444;49.742;6.114;2024-02-04T13:50:48;12.50;99.90
12761;DHT22;6444;49.742;6.114;2024-02-04T13:53:14;12.80;99.90
12761;DHT22;6444;49.742;6.114;2024-02-04T13:55:42;12.10;99.90
12761;DHT22;6444;49.742;6.114;2024-02-04T13:58:08;12.10;99.90
12761;DHT22;6444;49.742;6.114;2024-02-04T14:00:35;11.70;99.90
12761;DHT22;6444;49.742;6.114;2024-02-04T14:03:01;11.70;99.90
12761;DHT22;6444;49.742;6.114;2024-02-04T14:05:28;11.80;99.90
12761;DHT22;6444;49.742;6.114;2024-02-04T14:07:55;12.30;99.90
12761;DHT22;6444;49.742;6.114;2024-02-04T14:10:22;12.30;99.90
12761;DHT22;6444;49.742;6.114;2024-02-04T14:12:49;12.50;99.90
12761;DHT22;6444;49.742;6.114;2024-02-04T14:15:15;12.50;99.90
12761;DHT22;6444;49.742;6.114;2024-02-04T14:17:42;12.90;99.90
12761;DHT22;6444;49.742;6.114;2024-02-04T14:20:09;13.50;99.90
12761;DHT22;6444;49.742;6.114;2024-02-04T14:22:36;13.50;99.90
12761;DHT22;6444;49.742;6.114;2024-02-04T14:25:03;13.40;99.90
12761;DHT22;6444;49.742;6.114;2024-02-04T14:27:29;13.10;99.90
12761;DHT22;6444;49.742;6.114;2024-02-04T14:29:56;12.60;99.90
12761;DHT22;6444;49.742;6.114;2024-02-04T14:32:23;12.10;99.90
12761;DHT22;6444;49.742;6.114;2024-02-04T14:34:49;12.20;99.90
12761;DHT22;6444;49.742;6.114;2024-02-04T14:37:17;11.70;99.90
12761;DHT22;6444;49.742;6.114;2024-02-04T14:39:43;11.70;99.90
12761;DHT22;6444;49.742;6.114;2024-02-04T14:42:10;11.70;99.90
12761;DHT22;6444;49.742;6.114;2024-02-04T14:44:37;11.70;99.90
12761;DHT22;6444;49.742;6.114;2024-02-04T14:47:03;12.20;99.90
12761;DHT22;6444;49.742;6.114;2024-02-04T14:49:30;12.40;99.90
12761;DHT22;6444;49.742;6.114;2024-02-04T14:51:57;12.30;99.90
12761;DHT22;6444;49.742;6.114;2024-02-04T14:54:23;11.60;99.90
12761;DHT22;6444;49.742;6.114;2024-02-04T14:56:50;11.40;99.90
12761;DHT22;6444;49.742;6.114;2024-02-04T14:59:16;11.50;99.90
12761;DHT22;6444;49.742;6.114;2024-02-04T15:01:47;11.70;99.90
12761;DHT22;6444;49.742;6.114;2024-02-04T15:04:13;11.80;99.90
12761;DHT22;6444;49.742;6.114;2024-02-04T15:06:40;11.90;99.90
12761;DHT22;6444;49.742;6.114;2024-02-04T15:09:06;11.60;99.90
12761;DHT22;6444;49.742;6.114;2024-02-04T15:11:33;11.80;99.90
12761;DHT22;6444;49.742;6.114;2024-02-04T15:14:00;12.00;99.90
12761;DHT22;6444;49.742;6.114;2024-02-04T15:16:26;12.00;99.90
12761;DHT22;6444;49.742;6.114;2024-02-04T15:18:53;11.70;99.90
12761;DHT22;6444;49.742;6.114;2024-02-04T15:21:20;11.80;99.90
12761;DHT22;6444;49.742;6.114;2024-02-04T15:23:46;12.00;99.90
12761;DHT22;6444;49.742;6.114;2024-02-04T15:26:14;12.10;99.90
12761;DHT22;6444;49.742;6.114;2024-02-04T15:28:40;12.10;99.90
12761;DHT22;6444;49.742;6.114;2024-02-04T15:33:41;12.60;99.90
12761;DHT22;6444;49.742;6.114;2024-02-04T15:36:09;12.40;99.90
12761;DHT22;6444;49.742;6.114;2024-02-04T15:38:36;12.30;99.90
12761;DHT22;6444;49.742;6.114;2024-02-04T15:41:03;12.20;99.90
12761;DHT22;6444;49.742;6.114;2024-02-04T15:43:30;12.10;99.90
12761;DHT22;6444;49.742;6.114;2024-02-04T15:45:57;11.50;99.90
12761;DHT22;6444;49.742;6.114;2024-02-04T15:48:23;12.10;99.90
12761;DHT22;6444;49.742;6.114;2024-02-04T15:50:50;12.90;99.90
12761;DHT22;6444;49.742;6.114;2024-02-04T15:53:16;12.80;99.90
12761;DHT22;6444;49.742;6.114;2024-02-04T15:55:43;12.60;99.90
12761;DHT22;6444;49.742;6.114;2024-02-04T15:58:10;12.60;99.90
12761;DHT22;6444;49.742;6.114;2024-02-04T16:00:36;11.90;99.90
12761;DHT22;6444;49.742;6.114;2024-02-04T16:03:03;11.20;99.90
12761;DHT22;6444;49.742;6.114;2024-02-04T16:05:31;11.20;99.90